Time;durP1;ratioP1;P1;durP2;ratioP2;P2;SDS_P1;SDS_P2;PMS_P1;PMS_P2;Temp;Humidity;BMP_temperature;BMP_pressure;BME280_temperature;BME280_humidity;BME280_pressure;Samples;Min_cycle;Max_cycle;Signal;HPM_P1;HPM_P2
2021/08/12 00:02:23;;;;;;;4.83;4.40;;;;;;;15.19;100.00;101366.69;4953570;28;20237;-77
2021/08/12 00:04:51;;;;;;;5.33;4.83;;;;;;;15.12;100.00;101376.28;4952909;29;20187;-77
2021/08/12 00:07:17;;;;;;;5.33;4.93;;;;;;;15.13;100.00;101370.56;4952350;29;20227;-76
2021/08/12 00:09:43;;;;;;;5.40;5.00;;;;;;;15.13;100.00;101359.63;4952319;29;20269;-76
2021/08/12 00:12:11;;;;;;;5.77;5.20;;;;;;;15.04;100.00;101358.56;4953244;28;20223;-76
2021/08/12 00:14:36;;;;;;;6.10;5.60;;;;;;;14.95;100.00;101361.38;4953004;28;20194;-76
2021/08/12 00:17:04;;;;;;;6.20;5.50;;;;;;;14.98;100.00;101364.38;4968160;28;20910;-76
2021/08/12 00:19:30;;;;;;;5.97;5.37;;;;;;;14.95;100.00;101364.09;4952549;28;20661;-76
2021/08/12 00:21:58;;;;;;;6.53;6.03;;;;;;;14.89;100.00;101359.75;4936084;29;20235;-76
2021/08/12 00:24:23;;;;;;;6.90;6.20;;;;;;;14.91;100.00;101358.38;4960192;28;20198;-76
2021/08/12 00:26:51;;;;;;;7.87;6.77;;;;;;;14.94;100.00;101362.44;4971176;28;20222;-76
2021/08/12 00:29:17;;;;;;;6.40;5.80;;;;;;;14.94;100.00;101356.97;4949404;29;20179;-76
2021/08/12 00:31:47;;;;;;;6.43;5.83;;;;;;;14.94;100.00;101367.94;4935696;29;20239;-77
2021/08/12 00:34:15;;;;;;;6.13;5.63;;;;;;;14.94;100.00;101363.25;4953095;28;20585;-78
2021/08/12 00:36:42;;;;;;;6.50;5.40;;;;;;;14.97;100.00;101361.91;4952141;28;20226;-76
2021/08/12 00:39:10;;;;;;;6.17;5.67;;;;;;;14.95;100.00;101361.38;4935978;29;20515;-77
2021/08/12 00:41:41;;;;;;;6.57;5.90;;;;;;;14.83;100.00;101361.69;4951999;28;20234;-76
2021/08/12 00:44:08;;;;;;;7.60;6.90;;;;;;;14.89;100.00;101359.75;4937087;28;20275;-76
2021/08/12 00:46:34;;;;;;;6.50;6.00;;;;;;;15.00;100.00;101362.97;4951954;28;20223;-76
2021/08/12 00:49:01;;;;;;;7.00;6.10;;;;;;;14.87;100.00;101362.78;4951304;29;20187;-76
2021/08/12 00:51:32;;;;;;;7.30;5.43;;;;;;;14.92;100.00;101353.72;4920204;29;20270;-77
2021/08/12 00:54:02;;;;;;;6.40;5.80;;;;;;;14.86;100.00;101354.84;4951772;29;20724;-76
2021/08/12 00:56:29;;;;;;;6.22;5.65;;;;;;;14.85;100.00;101353.22;4968325;28;20222;-76
2021/08/12 00:58:57;;;;;;;5.63;5.13;;;;;;;14.89;100.00;101357.00;4939690;28;20656;-77
2021/08/12 01:01:25;;;;;;;7.20;5.50;;;;;;;14.85;100.00;101365.00;4917206;29;20231;-76
2021/08/12 01:03:54;;;;;;;5.90;5.30;;;;;;;14.78;100.00;101363.63;4917829;29;20701;-77
2021/08/12 01:06:29;;;;;;;6.97;5.50;;;;;;;14.80;100.00;101366.94;4950881;28;20219;-77
2021/08/12 01:09:06;;;;;;;6.00;5.60;;;;;;;14.83;100.00;101374.56;4936455;29;20634;-77
2021/08/12 01:11:35;;;;;;;6.50;5.90;;;;;;;14.91;100.00;101363.00;4935125;28;20223;-76
2021/08/12 01:14:16;;;;;;;6.10;5.60;;;;;;;14.98;100.00;101366.25;4951785;29;20307;-76
2021/08/12 01:17:00;;;;;;;6.20;5.60;;;;;;;14.90;100.00;101364.94;4935717;29;20230;-76
2021/08/12 01:19:51;;;;;;;7.50;6.60;;;;;;;14.89;100.00;101365.22;4950915;29;20237;-77
2021/08/12 01:22:20;;;;;;;7.87;6.90;;;;;;;14.89;100.00;101365.22;4952670;28;20277;-77
2021/08/12 01:24:53;;;;;;;7.27;6.60;;;;;;;14.85;100.00;101358.69;4913058;29;20185;-76
2021/08/12 01:27:27;;;;;;;7.43;6.73;;;;;;;14.81;100.00;101363.91;4951083;28;20226;-77
2021/08/12 01:30:06;;;;;;;7.57;6.83;;;;;;;14.81;100.00;101363.09;4950786;28;20179;-77
2021/08/12 01:32:58;;;;;;;7.50;6.88;;;;;;;14.83;100.00;101366.34;4967537;28;20227;-77
2021/08/12 01:35:24;;;;;;;7.27;6.50;;;;;;;14.84;100.00;101359.78;4935421;29;20219;-77
2021/08/12 01:38:21;;;;;;;6.87;6.30;;;;;;;14.82;100.00;101359.25;4936303;29;20814;-77
2021/08/12 01:40:47;;;;;;;6.47;5.87;;;;;;;14.72;100.00;101359.31;4925010;29;20227;-77
2021/08/12 01:43:16;;;;;;;5.77;5.27;;;;;;;14.75;100.00;101353.28;4920200;29;20183;-77
2021/08/12 01:46:03;;;;;;;5.33;4.93;;;;;;;14.67;100.00;101351.16;4943674;28;20215;-76
2021/08/12 01:48:30;;;;;;;5.70;5.30;;;;;;;14.66;100.00;101344.03;4923881;28;20881;-76
2021/08/12 01:50:57;;;;;;;7.83;6.87;;;;;;;14.61;100.00;101349.50;4923357;28;20222;-77
2021/08/12 01:53:23;;;;;;;8.13;7.33;;;;;;;14.61;100.00;101354.97;4958596;28;20505;-77
2021/08/12 01:55:51;;;;;;;8.00;7.20;;;;;;;14.64;100.00;101351.69;4943606;28;20289;-77
2021/08/12 01:58:17;;;;;;;8.60;7.80;;;;;;;14.69;100.00;101347.03;4954830;28;20187;-76
2021/08/12 02:00:50;;;;;;;9.50;8.50;;;;;;;14.67;100.00;101351.16;4917784;29;20232;-77
2021/08/12 02:03:22;;;;;;;8.90;6.93;;;;;;;14.68;100.00;101352.75;4936008;29;20188;-77
2021/08/12 02:05:51;;;;;;;7.60;6.90;;;;;;;14.61;100.00;101357.72;4954734;28;20627;-76
2021/08/12 02:08:27;;;;;;;7.70;7.10;;;;;;;14.63;100.00;101356.34;4908334;29;20179;-76
2021/08/12 02:10:55;;;;;;;8.27;7.57;;;;;;;14.62;100.00;101342.97;4936014;29;20298;-76
2021/08/12 02:13:24;;;;;;;7.87;7.07;;;;;;;14.59;100.00;101346.25;4935893;29;20183;-76
2021/08/12 02:15:52;;;;;;;8.43;7.73;;;;;;;14.59;100.00;101348.16;4941680;29;20230;-76
2021/08/12 02:18:18;;;;;;;8.33;7.37;;;;;;;14.60;100.00;101350.63;4924382;29;20195;-78
2021/08/12 02:20:58;;;;;;;9.67;8.33;;;;;;;14.49;100.00;101349.03;4940097;29;20688;-77
2021/08/12 02:23:35;;;;;;;8.90;8.10;;;;;;;14.51;100.00;101346.84;4957591;29;20573;-78
2021/08/12 02:26:08;;;;;;;10.03;9.03;;;;;;;14.54;100.00;101346.28;4939236;29;20218;-77
2021/08/12 02:28:34;;;;;;;10.13;9.13;;;;;;;14.50;100.00;101345.19;4938866;29;20215;-77
2021/08/12 02:31:05;;;;;;;9.60;7.50;;;;;;;14.54;100.00;101340.00;4923681;29;20590;-77
2021/08/12 02:33:34;;;;;;;8.83;7.70;;;;;;;14.55;100.00;101334.25;4940857;29;20661;-77
2021/08/12 02:36:01;;;;;;;10.37;9.27;;;;;;;14.53;100.00;101327.44;4957079;28;20577;-78
2021/08/12 02:38:27;;;;;;;9.40;8.50;;;;;;;14.57;100.00;101334.78;4925689;29;20214;-78
2021/08/12 02:40:57;;;;;;;8.23;7.53;;;;;;;14.58;100.00;101321.91;4945261;29;20230;-77
2021/08/12 02:43:25;;;;;;;6.97;6.37;;;;;;;14.51;100.00;101330.44;4939222;29;20187;-77
2021/08/12 02:45:55;;;;;;;6.73;5.97;;;;;;;14.43;100.00;101328.31;4953845;28;20219;-77
2021/08/12 02:48:23;;;;;;;7.97;6.70;;;;;;;14.40;100.00;101328.84;4922568;29;20556;-77
2021/08/12 02:50:50;;;;;;;7.90;7.17;;;;;;;14.43;100.00;101336.50;4922022;29;20776;-77
2021/08/12 02:53:21;;;;;;;8.70;7.67;;;;;;;14.40;100.00;101339.78;4945582;28;20649;-77
2021/08/12 02:55:46;;;;;;;9.60;8.70;;;;;;;14.30;100.00;101334.38;4949509;28;20233;-77
2021/08/12 02:58:12;;;;;;;11.40;8.87;;;;;;;14.39;100.00;101332.66;4923424;29;20190;-77
2021/08/12 03:00:38;;;;;;;10.40;9.33;;;;;;;14.49;100.00;101332.63;4923440;29;20234;-78
2021/08/12 03:03:03;;;;;;;9.77;8.87;;;;;;;14.48;100.00;101330.19;4952160;29;20241;-76
2021/08/12 03:05:32;;;;;;;10.23;9.30;;;;;;;14.49;100.00;101320.91;4954985;28;20229;-78
2021/08/12 03:08:00;;;;;;;9.60;8.70;;;;;;;14.51;100.00;101324.16;4948158;28;20194;-78
2021/08/12 03:10:28;;;;;;;10.50;8.85;;;;;;;14.48;100.00;101327.44;4951370;29;20287;-78
2021/08/12 03:12:56;;;;;;;10.10;9.20;;;;;;;14.35;100.00;101328.06;4967503;28;20191;-78
2021/08/12 03:15:23;;;;;;;10.10;8.83;;;;;;;14.34;100.00;101332.72;4956315;28;20219;-78
2021/08/12 03:17:49;;;;;;;10.50;9.43;;;;;;;14.40;100.00;101338.97;4949903;28;20183;-77
2021/08/12 03:20:14;;;;;;;9.63;8.73;;;;;;;14.35;100.00;101331.59;4923466;28;20677;-77
2021/08/12 03:22:41;;;;;;;9.80;8.80;;;;;;;14.42;100.00;101332.13;4949589;28;20265;-78
2021/08/12 03:25:11;;;;;;;9.80;8.80;;;;;;;14.12;100.00;101333.34;4967513;28;20182;-78
2021/08/12 03:27:43;;;;;;;9.67;8.70;;;;;;;14.27;100.00;101340.41;4964838;28;20187;-78
2021/08/12 03:30:08;;;;;;;9.70;8.87;;;;;;;14.31;100.00;101340.66;4922538;28;20197;-79
2021/08/12 03:32:38;;;;;;;10.17;9.17;;;;;;;14.29;100.00;101342.84;4941450;29;20669;-79
2021/08/12 03:35:07;;;;;;;10.40;9.40;;;;;;;14.28;100.00;101352.13;4956032;29;20230;-78
2021/08/12 03:37:32;;;;;;;10.93;9.90;;;;;;;14.38;100.00;101355.66;4960194;28;20700;-78
2021/08/12 03:40:00;;;;;;;10.67;9.67;;;;;;;14.40;100.00;101352.66;4956382;29;20202;-78
2021/08/12 03:42:32;;;;;;;10.60;9.60;;;;;;;14.21;100.00;101356.25;4960064;28;20756;-78
2021/08/12 03:44:58;;;;;;;10.52;9.52;;;;;;;14.22;100.00;101357.91;4939615;29;20210;-77
2021/08/12 03:47:23;;;;;;;10.75;9.68;;;;;;;14.32;100.00;101354.06;4934514;29;20231;-77
2021/08/12 03:49:53;;;;;;;10.32;9.23;;;;;;;14.39;100.00;101359.19;4934040;29;20211;-78
2021/08/12 03:52:21;;;;;;;11.00;9.90;;;;;;;14.40;100.00;101356.19;4951614;28;20314;-78
2021/08/12 03:54:49;;;;;;;10.57;9.57;;;;;;;14.34;100.00;101354.59;4960202;28;20186;-78
2021/08/12 03:57:20;;;;;;;9.20;8.30;;;;;;;14.23;100.00;101345.88;4972733;28;20254;-78
2021/08/12 03:59:47;;;;;;;11.00;8.67;;;;;;;13.93;100.00;101345.94;4938292;29;20198;-77
2021/08/12 04:02:15;;;;;;;9.63;8.80;;;;;;;13.96;100.00;101353.59;4939143;29;20230;-78
2021/08/12 04:04:41;;;;;;;10.07;9.13;;;;;;;13.94;100.00;101348.41;4955200;29;20183;-78
2021/08/12 04:07:11;;;;;;;10.23;9.27;;;;;;;14.01;100.00;101350.81;4938490;29;20223;-78
2021/08/12 04:09:40;;;;;;;10.73;9.77;;;;;;;14.04;100.00;101344.84;4950816;29;20286;-77
2021/08/12 04:12:07;;;;;;;11.47;10.27;;;;;;;14.03;100.00;101341.31;4929635;29;20218;-78
2021/08/12 04:14:32;;;;;;;11.23;9.50;;;;;;;14.11;100.00;101334.44;4969204;28;20214;-76
2021/08/12 04:16:59;;;;;;;11.20;10.20;;;;;;;14.12;100.00;101338.81;4937276;29;20227;-77
2021/08/12 04:19:26;;;;;;;11.57;10.47;;;;;;;14.10;100.00;101333.63;4953159;29;20187;-77
2021/08/12 04:21:52;;;;;;;10.97;9.83;;;;;;;14.10;100.00;101346.47;4969995;28;20242;-77
2021/08/12 04:24:18;;;;;;;11.33;10.23;;;;;;;14.15;100.00;101330.06;4971906;28;20192;-77
2021/08/12 04:26:43;;;;;;;11.40;10.30;;;;;;;14.13;100.00;101337.72;4957164;28;20230;-78
2021/08/12 04:29:09;;;;;;;11.03;9.93;;;;;;;14.20;100.00;101336.31;4945735;29;20250;-78
2021/08/12 04:31:35;;;;;;;11.20;10.10;;;;;;;14.22;100.00;101336.06;4940189;29;20234;-79
2021/08/12 04:34:01;;;;;;;10.70;9.70;;;;;;;14.28;100.00;101338.47;4964384;28;20238;-77
2021/08/12 04:36:26;;;;;;;11.53;10.30;;;;;;;14.46;100.00;101344.13;4955146;28;20716;-78
2021/08/12 04:38:59;;;;;;;11.87;10.63;;;;;;;14.73;100.00;101336.34;4944902;29;20190;-77
2021/08/12 04:41:25;;;;;;;11.10;9.93;;;;;;;14.85;100.00;101334.06;4970844;28;20289;-77
2021/08/12 04:43:53;;;;;;;11.43;10.23;;;;;;;15.16;100.00;101328.97;4954554;29;20275;-77
2021/08/12 04:46:23;;;;;;;10.97;9.97;;;;;;;15.15;100.00;101332.78;4954771;28;20385;-78
2021/08/12 04:48:49;;;;;;;10.77;9.80;;;;;;;15.12;100.00;101338.78;4951342;28;20279;-78
2021/08/12 04:51:15;;;;;;;10.77;9.77;;;;;;;15.17;100.00;101341.53;4920209;29;20235;-79
2021/08/12 04:53:41;;;;;;;10.67;9.43;;;;;;;15.24;100.00;101335.75;4952442;28;20534;-78
2021/08/12 04:56:07;;;;;;;12.97;10.20;;;;;;;15.28;100.00;101342.28;4945443;29;20310;-78
2021/08/12 04:58:35;;;;;;;10.97;9.97;;;;;;;15.23;100.00;101340.38;4954700;28;20811;-77
2021/08/12 05:01:04;;;;;;;10.60;9.27;;;;;;;15.33;100.00;101348.53;4953861;28;20222;-78
2021/08/12 05:03:29;;;;;;;10.40;9.30;;;;;;;15.34;100.00;101350.13;4944185;29;20680;-77
2021/08/12 05:06:03;;;;;;;10.95;9.88;;;;;;;15.44;100.00;101331.72;4972616;28;20391;-78
2021/08/12 05:08:31;;;;;;;10.63;9.52;;;;;;;15.49;100.00;101342.63;4938331;29;20197;-77
2021/08/12 05:11:00;;;;;;;10.30;9.30;;;;;;;15.52;100.00;101335.75;4969607;28;20230;-77
2021/08/12 05:13:27;;;;;;;11.38;9.77;;;;;;;15.63;100.00;101337.28;4965702;28;20268;-77
2021/08/12 05:15:52;;;;;;;10.07;8.75;;;;;;;15.75;100.00;101343.19;4955488;29;20231;-78
2021/08/12 05:18:21;;;;;;;9.40;8.40;;;;;;;15.84;100.00;101342.25;4959036;29;20234;-78
2021/08/12 05:20:46;;;;;;;9.93;8.88;;;;;;;15.93;100.00;101346.84;4975541;28;20327;-77
2021/08/12 05:23:12;;;;;;;10.27;9.00;;;;;;;16.23;100.00;101338.31;4960894;28;20174;-78
2021/08/12 05:25:43;;;;;;;9.45;8.55;;;;;;;16.16;100.00;101346.03;4965888;28;20219;-78
2021/08/12 05:28:15;;;;;;;8.65;7.80;;;;;;;16.03;100.00;101346.72;4918656;29;20274;-77
2021/08/12 05:30:40;;;;;;;9.20;8.38;;;;;;;16.32;100.00;101339.28;4935482;29;20227;-78
2021/08/12 05:33:09;;;;;;;9.77;8.73;;;;;;;16.51;100.00;101337.41;4936746;29;20668;-79
2021/08/12 05:35:36;;;;;;;7.90;7.20;;;;;;;16.63;100.00;101328.44;4952336;28;20607;-78
2021/08/12 05:38:02;;;;;;;9.38;8.23;;;;;;;16.69;100.00;101319.03;4954110;29;20186;-78
2021/08/12 05:40:28;;;;;;;8.63;7.72;;;;;;;16.94;100.00;101319.47;4963858;28;20242;-78
2021/08/12 05:42:54;;;;;;;8.32;7.47;;;;;;;17.09;100.00;101323.91;4951878;28;20553;-77
2021/08/12 05:45:20;;;;;;;11.18;8.32;;;;;;;17.19;100.00;101318.28;4951945;28;20183;-79
2021/08/12 05:47:45;;;;;;;9.07;7.18;;;;;;;17.32;100.00;101320.25;4949088;28;20213;-79
2021/08/12 05:50:11;;;;;;;7.70;7.00;;;;;;;17.51;100.00;101321.88;4960464;28;20191;-77
2021/08/12 05:52:37;;;;;;;7.45;6.75;;;;;;;17.67;100.00;101314.97;4948371;28;20206;-77
2021/08/12 05:55:04;;;;;;;7.78;6.72;;;;;;;17.68;100.00;101311.91;4974632;28;20214;-77
2021/08/12 05:57:33;;;;;;;7.50;6.80;;;;;;;17.43;100.00;101326.09;4963650;28;20238;-77
2021/08/12 05:59:58;;;;;;;8.10;6.78;;;;;;;17.72;100.00;101320.38;4947168;29;20642;-77
2021/08/12 06:02:24;;;;;;;7.32;6.57;;;;;;;17.47;100.00;101323.56;4960929;28;20234;-77
2021/08/12 06:04:52;;;;;;;7.47;6.63;;;;;;;17.68;100.00;101322.91;4961590;28;20187;-78
2021/08/12 06:07:19;;;;;;;7.50;6.05;;;;;;;17.87;100.00;101327.19;4954177;28;20217;-78
2021/08/12 06:09:44;;;;;;;7.18;6.47;;;;;;;17.78;100.00;101329.03;4953276;28;20180;-78
2021/08/12 06:12:11;;;;;;;6.70;5.97;;;;;;;18.04;100.00;101321.94;4934437;29;20231;-77
2021/08/12 06:14:39;;;;;;;7.43;5.75;;;;;;;18.02;100.00;101315.09;4940160;29;20677;-78
2021/08/12 06:17:07;;;;;;;6.45;5.85;;;;;;;18.10;100.00;101319.94;4938704;29;20739;-78
2021/08/12 06:19:35;;;;;;;8.07;6.00;;;;;;;18.22;100.00;101319.13;4939319;29;20187;-78
2021/08/12 06:22:01;;;;;;;5.97;5.03;;;;;;;18.30;100.00;101329.41;4955673;28;20230;-78
2021/08/12 06:24:27;;;;;;;6.95;5.65;;;;;;;18.44;100.00;101329.38;4959332;28;20192;-78
2021/08/12 06:26:52;;;;;;;7.15;5.30;;;;;;;18.46;100.00;101325.22;4942681;28;20229;-79
2021/08/12 06:29:21;;;;;;;6.18;5.57;;;;;;;18.66;100.00;101333.00;4975474;28;20193;-77
2021/08/12 06:31:46;;;;;;;7.78;5.68;;;;;;;18.85;100.00;101329.00;4921529;29;20744;-78
2021/08/12 06:34:12;;;;;;;6.60;5.28;;;;;;;18.86;100.00;101329.81;4938805;29;20208;-78
2021/08/12 06:36:42;;;;;;;6.03;5.32;;;;;;;18.88;100.00;101329.22;4956860;28;20889;-78
2021/08/12 06:39:08;;;;;;;5.95;5.35;;;;;;;19.01;100.00;101341.31;4940970;29;20623;-79
2021/08/12 06:41:36;;;;;;;5.80;5.30;;;;;;;19.03;100.00;101336.34;4956822;28;20231;-79
2021/08/12 06:44:13;;;;;;;5.70;5.20;;;;;;;19.21;100.00;101338.09;4957088;29;20178;-78
2021/08/12 06:46:41;;;;;;;5.18;4.78;;;;;;;19.15;100.00;101331.88;4968646;28;20305;-79
2021/08/12 06:49:10;;;;;;;6.20;5.60;;;;;;;19.33;100.00;101328.16;4958656;28;20187;-78
2021/08/12 06:51:42;;;;;;;5.70;5.10;;;;;;;19.42;100.00;101334.53;4933070;29;20251;-78
2021/08/12 06:54:08;;;;;;;6.20;5.60;;;;;;;19.32;100.00;101334.78;4960329;28;20218;-78
2021/08/12 06:56:38;;;;;;;5.88;5.22;;;;;;;19.53;100.00;101324.88;4961044;28;20223;-77
2021/08/12 06:59:07;;;;;;;5.45;4.95;;;;;;;19.67;100.00;101327.25;4940929;29;20190;-79
2021/08/12 07:01:35;;;;;;;5.70;5.15;;;;;;;19.91;100.00;101322.22;4942757;28;20319;-78
2021/08/12 07:04:05;;;;;;;5.53;5.00;;;;;;;19.90;100.00;101317.81;4960969;29;20179;-77
2021/08/12 07:06:38;;;;;;;6.07;5.57;;;;;;;20.10;100.00;101320.03;4965260;28;20229;-77
2021/08/12 07:09:05;;;;;;;5.90;5.40;;;;;;;20.15;100.00;101325.41;4925362;29;20188;-78
2021/08/12 07:11:31;;;;;;;6.07;5.53;;;;;;;20.23;100.00;101319.91;4943480;28;20269;-78
2021/08/12 07:13:57;;;;;;;6.63;5.28;;;;;;;20.40;100.00;101321.91;4944038;29;20187;-78
2021/08/12 07:16:26;;;;;;;5.72;4.70;;;;;;;20.40;100.00;101316.38;4974476;28;20219;-79
2021/08/12 07:18:59;;;;;;;5.85;4.88;;;;;;;20.62;100.00;101328.13;4959983;29;20215;-78
2021/08/12 07:21:30;;;;;;;5.30;4.80;;;;;;;20.82;100.00;101320.06;4973840;28;20226;-78
2021/08/12 07:24:02;;;;;;;6.13;5.53;;;;;;;21.00;100.00;101313.44;4966976;28;20187;-79
2021/08/12 07:26:28;;;;;;;6.38;5.13;;;;;;;20.73;100.00;101322.03;4949723;28;20599;-79
2021/08/12 07:28:56;;;;;;;5.10;4.57;;;;;;;20.94;100.00;101315.53;4957715;28;20214;-78
2021/08/12 07:31:22;;;;;;;6.18;5.07;;;;;;;21.00;100.00;101317.00;4961399;28;20215;-78
2021/08/12 07:33:50;;;;;;;5.93;5.28;;;;;;;21.09;100.00;101317.00;4923961;29;20215;-78
2021/08/12 07:36:20;;;;;;;6.65;5.20;;;;;;;21.30;100.00;101316.84;4941908;28;20215;-78
2021/08/12 07:38:48;;;;;;;5.80;5.30;;;;;;;21.22;100.00;101312.09;4973272;28;20198;-81
2021/08/12 07:41:14;;;;;;;5.35;4.85;;;;;;;21.18;100.00;101320.59;4972427;28;20218;-78
2021/08/12 07:43:40;;;;;;;5.45;4.95;;;;;;;21.20;100.00;101313.59;4955022;29;20567;-78
2021/08/12 07:46:09;;;;;;;5.80;5.10;;;;;;;21.19;100.00;101316.66;4923339;29;20744;-78
2021/08/12 07:48:36;;;;;;;5.03;4.60;;;;;;;21.29;100.00;101312.44;4957426;29;20195;-79
2021/08/12 07:51:02;;;;;;;5.03;4.53;;;;;;;21.84;100.00;101314.13;4956123;28;20227;-78
2021/08/12 07:53:28;;;;;;;5.78;4.60;;;;;;;21.92;99.95;101313.28;4962624;28;20209;-77
2021/08/12 07:55:56;;;;;;;5.25;4.65;;;;;;;21.84;100.00;101310.56;4949117;28;20241;-77
2021/08/12 07:58:22;;;;;;;5.85;4.75;;;;;;;21.85;94.74;101315.78;4938458;29;20199;-77
2021/08/12 08:00:53;;;;;;;4.57;4.18;;;;;;;21.97;94.04;101317.84;4938043;28;20735;-77
2021/08/12 08:03:21;;;;;;;4.60;4.20;;;;;;;21.74;97.70;101313.69;4938341;28;20570;-77
2021/08/12 08:05:49;;;;;;;5.03;4.53;;;;;;;21.90;97.57;101309.25;4952819;28;20218;-78
2021/08/12 08:08:15;;;;;;;4.95;4.45;;;;;;;22.17;97.36;101307.69;4953926;29;20257;-77
2021/08/12 08:10:40;;;;;;;4.50;4.10;;;;;;;22.34;98.14;101295.72;4952976;29;20231;-77
2021/08/12 08:13:06;;;;;;;4.72;4.32;;;;;;;22.55;93.80;101305.69;4952777;29;20238;-77
2021/08/12 08:15:34;;;;;;;4.43;4.03;;;;;;;22.70;93.25;101311.47;4952788;28;20791;-77
2021/08/12 08:18:02;;;;;;;5.65;4.07;;;;;;;22.93;91.23;101310.84;4936795;29;20576;-77
2021/08/12 08:20:28;;;;;;;4.68;4.20;;;;;;;22.73;92.37;101309.97;4953439;28;20239;-77
2021/08/12 08:22:53;;;;;;;4.82;4.38;;;;;;;22.78;86.15;101307.81;4940441;28;20240;-76
2021/08/12 08:25:22;;;;;;;4.43;4.03;;;;;;;22.98;84.67;101315.34;4948328;28;20194;-77
2021/08/12 08:27:49;;;;;;;4.72;4.28;;;;;;;23.30;84.36;101315.41;4928834;29;20187;-76
2021/08/12 08:30:19;;;;;;;4.38;3.97;;;;;;;23.54;82.78;101308.00;4936876;28;20710;-75
2021/08/12 08:32:45;;;;;;;4.95;4.18;;;;;;;23.55;83.58;101322.66;4937887;29;20198;-77
2021/08/12 08:35:10;;;;;;;4.70;4.30;;;;;;;23.71;84.31;101321.72;4953775;28;20261;-78
2021/08/12 08:37:38;;;;;;;6.25;4.10;;;;;;;23.86;83.39;101307.16;4954882;29;20179;-78
2021/08/12 08:40:04;;;;;;;4.63;4.10;;;;;;;24.07;80.77;101308.72;4935894;28;20194;-77
2021/08/12 08:42:35;;;;;;;4.78;4.25;;;;;;;24.21;79.93;101314.72;4940427;29;20179;-80
2021/08/12 08:45:05;;;;;;;4.50;4.10;;;;;;;23.97;80.60;101320.25;4956804;28;20198;-79
2021/08/12 08:47:32;;;;;;;4.95;3.92;;;;;;;24.05;81.36;101305.47;4969666;28;20226;-78
2021/08/12 08:50:00;;;;;;;4.30;3.92;;;;;;;24.47;80.50;101316.88;4938822;28;20191;-78
2021/08/12 08:52:26;;;;;;;4.30;3.90;;;;;;;24.49;81.72;101311.78;4971095;28;20242;-78
2021/08/12 08:54:53;;;;;;;4.30;3.90;;;;;;;24.23;78.37;101315.19;4949106;28;20680;-77
2021/08/12 08:57:19;;;;;;;4.30;4.00;;;;;;;23.91;79.23;101313.31;4967455;28;20594;-77
2021/08/12 08:59:45;;;;;;;4.43;4.03;;;;;;;23.79;81.15;101312.47;4952052;29;20661;-77
2021/08/12 09:02:11;;;;;;;4.38;3.97;;;;;;;24.29;81.14;101305.53;4903973;29;20241;-77
2021/08/12 09:04:39;;;;;;;5.10;4.60;;;;;;;24.61;78.97;101295.06;4952701;28;20207;-77
2021/08/12 09:07:10;;;;;;;4.50;3.95;;;;;;;24.40;82.10;101294.41;4952105;28;20641;-78
2021/08/12 09:09:36;;;;;;;4.40;4.00;;;;;;;24.31;81.02;101292.91;4938209;29;20576;-78
2021/08/12 09:12:05;;;;;;;4.45;4.05;;;;;;;24.30;78.90;101301.59;4938259;28;20234;-78
2021/08/12 09:14:33;;;;;;;4.85;4.15;;;;;;;24.33;82.08;101292.56;4937621;28;20657;-77
2021/08/12 09:16:59;;;;;;;4.30;3.90;;;;;;;24.29;78.42;101294.41;4952270;28;20222;-77
2021/08/12 09:19:28;;;;;;;4.97;4.47;;;;;;;24.26;79.92;101289.50;4952913;29;20273;-78
2021/08/12 09:22:01;;;;;;;4.45;4.05;;;;;;;24.66;77.98;101286.50;4936963;29;20223;-77
2021/08/12 09:24:27;;;;;;;4.20;3.80;;;;;;;24.50;77.94;101279.22;4961440;28;20198;-77
2021/08/12 09:26:53;;;;;;;6.05;3.85;;;;;;;24.73;76.52;101283.94;4972142;28;20222;-77
2021/08/12 09:29:31;;;;;;;4.25;3.92;;;;;;;24.83;78.51;101286.22;4961068;28;20191;-78
2021/08/12 09:32:01;;;;;;;4.28;3.88;;;;;;;24.59;76.15;101283.50;4954049;29;20734;-78
2021/08/12 09:34:41;;;;;;;4.75;4.00;;;;;;;24.81;73.97;101280.22;4968339;28;20213;-78
2021/08/12 09:37:07;;;;;;;4.13;3.72;;;;;;;25.13;74.72;101278.06;4923218;29;20226;-78
2021/08/12 09:39:34;;;;;;;4.63;3.70;;;;;;;25.56;75.34;101281.66;4967284;28;20194;-78
2021/08/12 09:42:05;;;;;;;4.75;4.35;;;;;;;25.23;72.84;101271.97;4954826;28;20238;-79
2021/08/12 09:44:53;;;;;;;4.53;3.92;;;;;;;25.43;75.62;101273.75;4949072;28;20191;-78
2021/08/12 09:47:18;;;;;;;4.35;3.40;;;;;;;25.55;73.68;101268.13;4940417;29;20227;-78
2021/08/12 09:49:50;;;;;;;4.30;3.60;;;;;;;25.72;71.47;101273.38;4964790;28;20527;-78
2021/08/12 09:52:28;;;;;;;4.03;3.70;;;;;;;25.63;71.01;101269.97;4966472;28;20239;-77
2021/08/12 09:55:23;;;;;;;4.57;4.18;;;;;;;26.04;69.75;101268.28;4959034;28;20203;-78
2021/08/12 09:57:55;;;;;;;4.25;3.65;;;;;;;25.96;70.04;101272.03;4957404;29;20226;-78
2021/08/12 10:00:35;;;;;;;4.63;3.80;;;;;;;25.89;69.83;101261.91;4921454;28;20207;-77
2021/08/12 10:03:19;;;;;;;3.83;3.53;;;;;;;26.15;65.75;101260.97;4923168;29;20554;-77
2021/08/12 10:05:44;;;;;;;3.95;3.55;;;;;;;26.03;68.86;101254.72;4941404;28;20227;-77
2021/08/12 10:08:19;;;;;;;4.03;3.58;;;;;;;26.45;69.87;101265.75;4955422;29;20183;-78
2021/08/12 10:10:47;;;;;;;4.40;3.53;;;;;;;26.52;68.11;101265.09;4955954;28;20246;-78
2021/08/12 10:13:12;;;;;;;3.40;3.13;;;;;;;26.31;66.06;101264.59;4956391;29;20668;-77
2021/08/12 10:15:38;;;;;;;4.07;3.22;;;;;;;26.49;66.28;101265.84;4959071;28;20231;-77
2021/08/12 10:18:04;;;;;;;4.18;3.33;;;;;;;26.48;66.55;101258.63;4940179;29;20183;-78
2021/08/12 10:20:33;;;;;;;4.10;3.70;;;;;;;26.51;66.47;101263.50;4956433;28;20971;-78
2021/08/12 10:23:02;;;;;;;3.50;3.20;;;;;;;26.56;64.44;101261.22;4948500;28;20212;-79
2021/08/12 10:25:36;;;;;;;4.47;3.80;;;;;;;26.49;63.33;101260.25;4967149;28;20595;-78
2021/08/12 10:28:07;;;;;;;4.15;3.75;;;;;;;26.46;65.80;101260.97;4958808;29;20182;-76
2021/08/12 10:30:38;;;;;;;4.22;3.40;;;;;;;26.57;64.36;101262.81;4969010;28;20218;-77
2021/08/12 10:33:05;;;;;;;5.65;4.05;;;;;;;26.57;65.07;101250.88;4941172;29;20663;-77
2021/08/12 10:35:32;;;;;;;3.80;3.50;;;;;;;26.94;65.83;101262.13;4968134;28;20602;-78
2021/08/12 10:38:03;;;;;;;4.28;3.88;;;;;;;26.96;63.29;101254.19;4971780;28;20203;-77
2021/08/12 10:40:30;;;;;;;4.30;3.90;;;;;;;26.64;64.69;101251.03;4966671;28;20257;-78
2021/08/12 10:42:59;;;;;;;4.30;3.90;;;;;;;27.18;65.95;101251.47;4941327;29;20190;-77
2021/08/12 10:45:30;;;;;;;3.88;3.47;;;;;;;27.02;62.06;101247.16;4955575;28;20683;-78
2021/08/12 10:47:59;;;;;;;6.40;3.50;;;;;;;27.07;66.35;101255.22;4940499;28;20219;-77
2021/08/12 10:50:27;;;;;;;4.63;3.72;;;;;;;26.94;64.33;101259.34;4967020;28;20265;-78
2021/08/12 10:53:07;;;;;;;3.92;3.60;;;;;;;27.06;61.58;101252.81;4961781;28;20847;-79
2021/08/12 10:55:38;;;;;;;3.85;3.53;;;;;;;27.35;60.45;101261.38;4982142;28;20349;-78
2021/08/12 10:58:40;;;;;;;3.97;3.63;;;;;;;27.48;56.87;101256.09;4992240;28;20731;-78
2021/08/12 11:01:09;;;;;;;4.15;3.45;;;;;;;28.00;56.83;101250.66;4960066;28;20253;-76
2021/08/12 11:03:46;;;;;;;4.13;3.50;;;;;;;28.03;58.93;101244.34;4957871;29;20193;-78
2021/08/12 11:06:13;;;;;;;4.45;4.05;;;;;;;28.56;58.23;101247.59;4923575;29;20223;-78
2021/08/12 11:08:48;;;;;;;4.07;3.67;;;;;;;28.30;58.69;101249.59;4938725;29;20187;-78
2021/08/12 11:11:25;;;;;;;3.97;3.50;;;;;;;28.03;53.17;101242.34;4951883;29;20264;-78
2021/08/12 11:14:02;;;;;;;4.95;3.92;;;;;;;27.84;53.67;101244.41;4956793;28;20209;-78
2021/08/12 11:16:49;;;;;;;4.20;3.75;;;;;;;27.75;56.22;101243.84;4939914;29;20318;-78
2021/08/12 11:19:21;;;;;;;3.95;3.60;;;;;;;28.05;54.44;101248.38;4954717;29;20235;-78
2021/08/12 11:21:49;;;;;;;5.22;3.60;;;;;;;28.34;54.24;101228.09;4938810;29;20231;-78
2021/08/12 11:24:17;;;;;;;4.68;4.07;;;;;;;28.41;57.93;101228.19;4916635;29;20687;-78
2021/08/12 11:26:46;;;;;;;4.60;4.10;;;;;;;28.65;56.19;101228.59;4969405;28;20250;-79